createdAt,value
2022-11-15T06:32:40.194Z,89.68
2022-11-15T07:09:57.643Z,87.68
2022-11-15T07:13:19.699Z,87.77
2022-11-15T07:16:41.682Z,88.16
2022-11-15T07:20:03.229Z,88.19
2022-11-15T07:23:24.473Z,89.04
2022-11-15T07:26:45.494Z,89.05
2022-11-15T07:30:07.093Z,88.53
2022-11-15T07:33:28.485Z,89.00
2022-11-15T07:36:49.805Z,88.60
2022-11-15T07:40:12.439Z,88.74
2022-11-15T07:43:34.944Z,88.74
2022-11-15T07:46:56.094Z,89.41
2022-11-15T07:50:17.943Z,88.84
2022-11-15T07:54:07.783Z,88.47
2022-11-15T07:57:30.162Z,88.57
2022-11-15T08:00:51.248Z,88.70
2022-11-15T08:04:12.759Z,88.12
2022-11-15T08:07:34.098Z,87.55
2022-11-15T08:10:55.723Z,88.05
2022-11-15T08:14:16.799Z,87.99
2022-11-15T08:17:37.897Z,87.27
2022-11-15T08:21:03.178Z,87.23
2022-11-15T08:24:24.176Z,88.64
2022-11-15T08:27:46.036Z,87.34
2022-11-15T08:31:08.187Z,88.15
2022-11-15T08:34:30.107Z,87.36
2022-11-15T08:37:57.197Z,88.40
2022-11-15T08:41:33.078Z,87.82
2022-11-15T08:44:54.425Z,87.99
2022-11-15T08:48:15.310Z,87.78
2022-11-15T08:51:36.590Z,86.77
2022-11-15T08:54:59.355Z,87.48
2022-11-15T08:58:20.975Z,86.34
2022-11-15T09:01:42.350Z,85.65
2022-11-15T09:05:03.919Z,88.01
2022-11-15T09:08:46.553Z,84.88
2022-11-15T09:12:14.935Z,85.17
2022-11-15T09:15:36.228Z,85.77
2022-11-15T09:18:57.366Z,86.20
2022-11-15T09:22:18.246Z,85.59
2022-11-15T09:25:39.432Z,86.40
2022-11-15T09:29:02.374Z,85.39
2022-11-15T09:32:24.289Z,85.14
2022-11-15T09:35:45.455Z,83.92
2022-11-15T09:39:06.538Z,84.80
2022-11-15T09:42:58.588Z,84.20
2022-11-15T09:46:37.110Z,83.04
2022-11-15T09:50:21.365Z,82.77
2022-11-15T09:54:13.497Z,82.84
2022-11-15T09:57:19.638Z,83.17
2022-11-15T10:00:48.259Z,82.14
2022-11-15T10:03:52.502Z,81.97
2022-11-15T10:07:03.825Z,81.06
2022-11-15T10:10:40.180Z,79.50
2022-11-15T10:13:47.305Z,80.89
2022-11-15T10:17:19.152Z,79.79
2022-11-15T10:20:24.115Z,79.83
2022-11-15T10:23:28.720Z,79.80
2022-11-15T10:26:31.199Z,79.00
2022-11-15T10:29:34.477Z,79.13
2022-11-15T10:32:37.443Z,78.38
2022-11-15T10:35:40.159Z,78.53
2022-11-15T10:38:51.843Z,78.93
2022-11-15T10:41:55.419Z,77.36
2022-11-15T10:44:57.876Z,78.89
2022-11-15T10:48:15.534Z,80.00
2022-11-15T10:51:29.219Z,79.93
2022-11-15T10:54:37.166Z,81.15
2022-11-15T10:57:41.375Z,80.77
2022-11-15T11:00:47.937Z,80.79
2022-11-15T11:04:04.616Z,79.95
2022-11-15T11:07:21.965Z,80.50
2022-11-15T11:10:50.368Z,80.43
2022-11-15T11:13:50.163Z,79.78
2022-11-15T11:16:58.914Z,79.56
2022-11-15T11:20:19.942Z,79.09
2022-11-15T11:23:50.498Z,79.75
2022-11-15T11:27:18.772Z,77.43
2022-11-15T11:30:50.574Z,75.77
2022-11-15T11:34:08.068Z,74.28
2022-11-15T11:37:31.478Z,74.37
2022-11-15T11:40:46.133Z,70.94
2022-11-15T11:43:52.102Z,72.52
2022-11-15T11:47:01.862Z,73.72
2022-11-15T11:50:27.952Z,74.12
2022-11-15T11:53:49.049Z,71.63
2022-11-15T11:56:53.072Z,69.22
2022-11-15T12:00:03.150Z,68.47
2022-11-15T12:03:20.825Z,70.46
2022-11-15T12:06:48.437Z,70.71
2022-11-15T12:10:02.866Z,73.01
2022-11-15T12:13:12.074Z,76.07
2022-11-15T12:16:24.926Z,75.23
2022-11-15T12:19:29.768Z,76.45
2022-11-15T12:22:44.555Z,78.58
2022-11-15T12:25:52.771Z,76.74
2022-11-15T12:29:07.463Z,78.84
2022-11-15T12:32:37.007Z,79.52
2022-11-15T12:35:42.956Z,78.83
2022-11-15T12:39:03.937Z,78.99
2022-11-15T12:42:06.746Z,79.83
2022-11-15T12:45:45.973Z,79.90
2022-11-15T12:48:54.536Z,80.94
2022-11-15T12:52:00.010Z,81.46
2022-11-15T12:55:23.998Z,82.05
2022-11-15T12:58:43.635Z,80.59
2022-11-15T13:01:46.171Z,81.90
2022-11-15T13:04:50.265Z,82.02
2022-11-15T13:07:59.826Z,80.78
2022-11-15T13:11:41.297Z,83.07
2022-11-15T13:14:52.527Z,81.92
2022-11-15T13:17:57.749Z,82.12
2022-11-15T13:21:02.933Z,81.32
2022-11-15T13:24:11.173Z,82.45
2022-11-15T13:27:20.351Z,81.55
2022-11-15T13:30:26.231Z,81.34
2022-11-15T13:33:36.440Z,81.63
2022-11-15T13:36:39.110Z,81.16
2022-11-15T13:39:41.881Z,82.89
2022-11-15T13:42:46.010Z,81.93
2022-11-15T13:46:13.182Z,81.97
2022-11-15T13:49:15.567Z,82.21
2022-11-15T13:52:18.675Z,84.23
2022-11-15T13:55:23.781Z,85.35
2022-11-15T13:58:26.865Z,85.58
2022-11-15T14:01:32.692Z,85.38
2022-11-15T14:04:35.608Z,84.79
2022-11-15T14:07:41.833Z,85.24
2022-11-15T14:10:47.709Z,85.11
2022-11-15T14:14:08.492Z,84.36
2022-11-15T14:17:21.864Z,84.67
2022-11-15T14:20:29.510Z,86.13
2022-11-15T14:23:32.230Z,86.46
2022-11-15T14:26:35.883Z,87.12
2022-11-15T14:29:39.190Z,87.06
2022-11-15T14:32:48.873Z,86.81
2022-11-15T14:35:53.312Z,86.45
2022-11-15T14:38:56.010Z,86.67
2022-11-15T14:41:58.789Z,87.33
2022-11-15T14:45:01.379Z,87.72
2022-11-15T14:48:04.466Z,88.37
2022-11-15T14:51:25.402Z,88.19
2022-11-15T14:54:28.035Z,88.11
2022-11-15T14:57:31.108Z,88.39
2022-11-15T15:00:35.465Z,88.66
2022-11-15T15:03:38.198Z,88.65
2022-11-15T15:06:40.854Z,88.16
2022-11-15T15:09:44.112Z,89.18
2022-11-15T15:12:47.047Z,90.20
2022-11-15T15:15:50.636Z,90.06
2022-11-15T15:18:53.725Z,90.40
2022-11-15T15:21:56.066Z,89.73
2022-11-15T15:24:58.635Z,89.90
2022-11-15T15:28:01.372Z,90.24
2022-11-15T15:31:05.204Z,90.10
2022-11-15T15:34:12.132Z,88.99
2022-11-15T15:37:27.434Z,90.04
2022-11-15T15:40:32.257Z,90.22
2022-11-15T15:43:35.226Z,89.68
2022-11-15T15:46:37.633Z,89.87
2022-11-15T15:49:40.839Z,90.60
2022-11-15T15:52:43.538Z,90.90
2022-11-15T15:55:46.055Z,90.93
2022-11-15T15:58:49.098Z,90.92
2022-11-15T16:01:51.634Z,91.55
2022-11-15T16:04:54.244Z,91.07
2022-11-15T16:07:56.758Z,91.11
2022-11-15T16:11:00.116Z,90.57
2022-11-15T16:14:02.778Z,90.31
2022-11-15T16:17:05.272Z,90.63
2022-11-15T16:20:08.223Z,90.53
2022-11-15T16:23:15.891Z,91.62
2022-11-15T16:26:22.942Z,92.19
2022-11-15T16:29:25.517Z,92.37
2022-11-15T16:32:28.266Z,92.67
2022-11-15T16:35:31.072Z,92.35
2022-11-15T16:38:33.844Z,91.98
2022-11-15T16:41:36.950Z,91.82
2022-11-15T16:44:39.401Z,92.19
2022-11-15T16:47:42.091Z,91.86
2022-11-15T16:50:46.918Z,92.38
2022-11-15T16:53:50.098Z,92.41
2022-11-15T16:56:53.822Z,92.35
2022-11-15T16:59:56.634Z,92.55
2022-11-15T17:02:59.694Z,91.94
2022-11-15T17:06:02.150Z,91.60
2022-11-15T17:09:04.854Z,92.07
2022-11-15T17:12:08.941Z,92.45
2022-11-15T17:15:13.200Z,92.69
2022-11-15T17:18:15.797Z,92.59
2022-11-15T17:21:22.006Z,92.27
2022-11-15T17:24:24.815Z,92.40
2022-11-15T17:27:27.367Z,92.34
2022-11-15T17:30:30.526Z,92.64
2022-11-15T17:33:33.213Z,91.84
2022-11-15T17:36:36.234Z,91.95
2022-11-15T17:39:38.798Z,91.71
2022-11-15T17:42:42.264Z,91.48
2022-11-15T17:45:45.247Z,91.59
2022-11-15T17:48:48.858Z,91.28
2022-11-15T17:51:52.974Z,91.94
2022-11-15T17:54:55.370Z,91.30
2022-11-15T17:57:58.222Z,91.16
2022-11-15T18:01:07.826Z,91.54
2022-11-15T18:04:10.876Z,92.25
2022-11-15T18:07:14.132Z,92.55
2022-11-15T18:10:17.705Z,92.11
2022-11-15T18:13:20.141Z,92.25
2022-11-15T18:16:27.727Z,92.25
2022-11-15T18:19:30.379Z,92.15
2022-11-15T18:22:33.341Z,91.79
2022-11-15T18:25:35.784Z,91.50
2022-11-15T18:28:40.866Z,90.82
2022-11-15T18:31:47.536Z,91.10
2022-11-15T18:34:50.476Z,91.76
2022-11-15T18:37:55.523Z,91.83
2022-11-15T18:41:09.858Z,91.29
2022-11-15T18:44:12.719Z,91.62
2022-11-15T18:47:15.327Z,91.41
2022-11-15T18:50:17.921Z,91.23
2022-11-15T18:53:20.237Z,91.26
2022-11-15T18:56:24.573Z,90.97
2022-11-15T18:59:27.842Z,91.75
2022-11-15T19:02:30.479Z,91.73
2022-11-15T19:05:35.288Z,91.54
2022-11-15T19:08:38.702Z,91.58
2022-11-15T19:11:41.815Z,92.06
2022-11-15T19:14:44.378Z,91.55
2022-11-15T19:17:46.841Z,91.37
2022-11-15T19:20:50.533Z,91.54
2022-11-15T19:23:54.247Z,92.35
2022-11-15T19:26:57.080Z,93.10
2022-11-15T19:29:59.712Z,92.99
2022-11-15T19:33:02.442Z,92.92
2022-11-15T19:36:17.044Z,92.63
2022-11-15T19:39:20.082Z,92.44
2022-11-15T19:42:22.672Z,92.63
2022-11-15T19:45:25.730Z,92.38
2022-11-15T19:48:29.898Z,92.38
2022-11-15T19:51:33.093Z,92.87
2022-11-15T19:54:36.326Z,93.08
2022-11-15T19:57:38.962Z,92.89
2022-11-15T20:00:42.396Z,92.77
2022-11-15T20:03:50.225Z,93.26
2022-11-15T20:06:52.790Z,93.27
2022-11-15T20:09:55.574Z,93.00
2022-11-15T20:12:58.426Z,93.25
2022-11-15T20:16:01.232Z,92.78
2022-11-15T20:19:03.834Z,93.13
2022-11-15T20:22:06.766Z,93.25
2022-11-15T20:25:10.059Z,93.38
2022-11-15T20:28:21.169Z,93.46
2022-11-15T20:31:23.520Z,93.35
2022-11-15T20:34:26.210Z,93.50
2022-11-15T20:37:28.878Z,93.07
2022-11-15T20:40:33.050Z,93.45
2022-11-15T20:43:35.820Z,93.55
2022-11-15T20:46:38.654Z,93.73
2022-11-15T20:49:41.396Z,94.17
2022-11-15T20:52:44.840Z,93.76
2022-11-15T20:55:49.704Z,93.41
2022-11-15T20:58:53.641Z,93.73
2022-11-15T21:01:56.018Z,93.62
2022-11-15T21:04:59.165Z,93.68
2022-11-15T21:08:01.776Z,94.09
2022-11-15T21:11:27.115Z,93.89
2022-11-15T21:14:30.031Z,93.75
2022-11-15T21:17:32.437Z,93.38
2022-11-15T21:20:35.200Z,93.87
2022-11-15T21:23:38.146Z,94.18
2022-11-15T21:26:40.813Z,94.24
2022-11-15T21:29:45.756Z,93.75
2022-11-15T21:32:48.501Z,94.20
2022-11-15T21:35:52.002Z,94.06
2022-11-15T21:38:54.499Z,94.62
2022-11-15T21:41:57.234Z,93.79
2022-11-15T21:44:59.736Z,93.82
2022-11-15T21:48:02.524Z,93.59
2022-11-15T21:51:08.488Z,93.68
2022-11-15T21:54:11.197Z,93.40
2022-11-15T21:57:13.533Z,93.48
2022-11-15T22:00:36.122Z,93.86
2022-11-15T22:03:38.636Z,94.11
2022-11-15T22:06:41.423Z,94.01
2022-11-15T22:09:44.070Z,93.64
2022-11-15T22:12:47.077Z,94.05
2022-11-15T22:15:51.368Z,94.00
2022-11-15T22:18:54.306Z,93.78
2022-11-15T22:21:56.939Z,93.75
2022-11-15T22:25:00.162Z,93.48
2022-11-15T22:28:02.750Z,93.42
2022-11-15T22:31:06.458Z,93.45
2022-11-15T22:34:09.385Z,93.93
2022-11-15T22:37:20.492Z,94.07
2022-11-15T22:40:23.902Z,94.02
2022-11-15T22:43:27.676Z,94.12
2022-11-15T22:46:30.343Z,93.97
2022-11-15T22:49:33.030Z,94.03
2022-11-15T22:52:35.782Z,93.88
2022-11-15T22:55:39.646Z,94.00
2022-11-15T22:58:42.086Z,93.96
2022-11-15T23:01:45.014Z,93.83
2022-11-15T23:04:47.429Z,93.82
2022-11-15T23:07:50.114Z,93.68
2022-11-15T23:11:12.277Z,93.39
2022-11-15T23:14:34.685Z,93.18
2022-11-15T23:17:57.112Z,93.24
2022-11-15T23:21:43.744Z,93.70
2022-11-15T23:25:06.868Z,93.86
2022-11-15T23:28:09.727Z,93.68
2022-11-15T23:31:30.458Z,93.33
2022-11-15T23:34:37.025Z,93.31
2022-11-15T23:37:39.582Z,93.18
2022-11-15T23:40:42.693Z,92.83
2022-11-15T23:43:45.760Z,93.13
2022-11-15T23:46:48.505Z,93.56
2022-11-15T23:49:51.178Z,93.94
2022-11-15T23:52:53.729Z,93.67
2022-11-15T23:56:07.830Z,93.50
2022-11-15T23:59:10.758Z,93.39
